sensor_id;sensor_type;location;lat;lon;timestamp;pressure;altitude;pressure_sealevel;temperature;humidity
27984;BME280;15317;50.360;8.726;2023-07-28T00:02:04;98801.00;;;16.03;100.00
27984;BME280;15317;50.360;8.726;2023-07-28T00:07:08;98796.56;;;16.08;100.00
27984;BME280;15317;50.360;8.726;2023-07-28T00:12:12;98802.44;;;16.12;100.00
27984;BME280;15317;50.360;8.726;2023-07-28T00:17:15;98797.81;;;16.12;100.00
27984;BME280;15317;50.360;8.726;2023-07-28T00:22:19;98783.47;;;16.10;100.00
27984;BME280;15317;50.360;8.726;2023-07-28T00:27:22;98788.53;;;16.13;100.00
27984;BME280;15317;50.360;8.726;2023-07-28T00:32:25;98782.41;;;16.11;100.00
27984;BME280;15317;50.360;8.726;2023-07-28T00:37:30;98782.22;;;16.13;100.00
27984;BME280;15317;50.360;8.726;2023-07-28T00:42:33;98766.63;;;16.13;100.00
27984;BME280;15317;50.360;8.726;2023-07-28T00:47:38;98761.97;;;16.20;100.00
27984;BME280;15317;50.360;8.726;2023-07-28T00:52:42;98756.09;;;16.17;100.00
27984;BME280;15317;50.360;8.726;2023-07-28T00:57:46;98768.31;;;16.14;100.00
27984;BME280;15317;50.360;8.726;2023-07-28T01:02:49;98771.03;;;16.14;100.00
27984;BME280;15317;50.360;8.726;2023-07-28T01:07:59;98770.84;;;16.09;100.00
27984;BME280;15317;50.360;8.726;2023-07-28T01:13:04;98764.28;;;16.10;100.00
27984;BME280;15317;50.360;8.726;2023-07-28T01:18:08;98765.78;;;16.06;100.00
27984;BME280;15317;50.360;8.726;2023-07-28T01:23:18;98768.72;;;16.11;100.00
27984;BME280;15317;50.360;8.726;2023-07-28T01:28:25;98749.78;;;16.10;100.00
27984;BME280;15317;50.360;8.726;2023-07-28T01:33:30;98735.63;;;16.13;100.00
27984;BME280;15317;50.360;8.726;2023-07-28T01:38:33;98756.50;;;16.07;100.00
27984;BME280;15317;50.360;8.726;2023-07-28T01:43:38;98756.50;;;16.07;100.00
27984;BME280;15317;50.360;8.726;2023-07-28T01:48:42;98756.50;;;16.07;100.00
27984;BME280;15317;50.360;8.726;2023-07-28T01:53:45;98745.56;;;16.07;100.00
27984;BME280;15317;50.360;8.726;2023-07-28T01:58:49;98743.88;;;16.06;100.00
27984;BME280;15317;50.360;8.726;2023-07-28T02:03:53;98743.88;;;16.06;100.00
27984;BME280;15317;50.360;8.726;2023-07-28T02:08:56;98743.88;;;16.06;100.00
27984;BME280;15317;50.360;8.726;2023-07-28T02:14:00;98758.19;;;16.08;100.00
27984;BME280;15317;50.360;8.726;2023-07-28T02:19:04;98760.94;;;16.08;100.00
27984;BME280;15317;50.360;8.726;2023-07-28T02:24:07;64116.50;;;-144.75;100.00
27984;BME280;15317;50.360;8.726;2023-07-28T02:29:11;64116.50;;;-144.75;100.00
27984;BME280;15317;50.360;8.726;2023-07-28T02:34:15;64116.50;;;-144.75;100.00
27984;BME280;15317;50.360;8.726;2023-07-28T02:39:18;64116.50;;;-144.75;100.00
27984;BME280;15317;50.360;8.726;2023-07-28T02:44:24;98722.66;;;16.53;100.00
27984;BME280;15317;50.360;8.726;2023-07-28T02:49:27;98724.38;;;16.47;100.00
27984;BME280;15317;50.360;8.726;2023-07-28T02:54:31;98735.56;;;16.46;100.00
27984;BME280;15317;50.360;8.726;2023-07-28T02:59:36;98743.59;;;16.41;100.00
27984;BME280;15317;50.360;8.726;2023-07-28T03:04:39;98751.38;;;16.44;100.00
27984;BME280;15317;50.360;8.726;2023-07-28T03:09:42;98754.34;;;16.42;100.00
27984;BME280;15317;50.360;8.726;2023-07-28T03:14:47;98755.59;;;16.40;100.00
27984;BME280;15317;50.360;8.726;2023-07-28T03:19:50;98757.31;;;16.28;100.00
27984;BME280;15317;50.360;8.726;2023-07-28T03:24:53;98760.47;;;16.25;100.00
27984;BME280;15317;50.360;8.726;2023-07-28T03:29:57;98768.25;;;16.34;100.00
27984;BME280;15317;50.360;8.726;2023-07-28T03:35:01;98766.38;;;16.28;100.00
27984;BME280;15317;50.360;8.726;2023-07-28T03:40:07;98769.78;;;16.24;100.00
27984;BME280;15317;50.360;8.726;2023-07-28T03:45:12;98761.13;;;16.13;100.00
27984;BME280;15317;50.360;8.726;2023-07-28T03:50:15;98767.88;;;16.17;100.00
27984;BME280;15317;50.360;8.726;2023-07-28T03:55:18;98773.34;;;16.11;100.00
27984;BME280;15317;50.360;8.726;2023-07-28T04:00:23;98764.50;;;16.15;100.00
27984;BME280;15317;50.360;8.726;2023-07-28T04:05:26;98768.94;;;16.16;100.00
27984;BME280;15317;50.360;8.726;2023-07-28T04:10:29;98765.56;;;16.08;100.00
27984;BME280;15317;50.360;8.726;2023-07-28T04:15:34;98764.06;;;16.18;100.00
27984;BME280;15317;50.360;8.726;2023-07-28T04:20:37;98775.03;;;16.18;100.00
27984;BME280;15317;50.360;8.726;2023-07-28T04:25:40;98788.13;;;16.16;100.00
27984;BME280;15317;50.360;8.726;2023-07-28T04:30:44;98786.84;;;16.19;100.00
27984;BME280;15317;50.360;8.726;2023-07-28T04:35:47;98796.34;;;16.16;100.00
27984;BME280;15317;50.360;8.726;2023-07-28T04:40:50;98794.44;;;16.30;100.00
27984;BME280;15317;50.360;8.726;2023-07-28T04:45:55;98803.69;;;16.36;100.00
27984;BME280;15317;50.360;8.726;2023-07-28T04:50:58;98818.00;;;16.38;100.00
27984;BME280;15317;50.360;8.726;2023-07-28T04:56:02;98820.97;;;16.43;100.00
27984;BME280;15317;50.360;8.726;2023-07-28T05:01:07;98820.31;;;16.41;100.00
27984;BME280;15317;50.360;8.726;2023-07-28T05:06:11;98811.69;;;16.44;100.00
27984;BME280;15317;50.360;8.726;2023-07-28T05:11:14;98816.72;;;16.47;100.00
27984;BME280;15317;50.360;8.726;2023-07-28T05:16:18;98826.44;;;16.49;100.00
27984;BME280;15317;50.360;8.726;2023-07-28T05:21:22;98831.91;;;16.56;100.00
27984;BME280;15317;50.360;8.726;2023-07-28T05:26:25;98829.38;;;16.61;100.00
27984;BME280;15317;50.360;8.726;2023-07-28T05:31:29;98840.31;;;16.74;100.00
27984;BME280;15317;50.360;8.726;2023-07-28T05:36:33;98835.47;;;16.76;100.00
27984;BME280;15317;50.360;8.726;2023-07-28T05:41:36;98833.06;;;16.93;100.00
27984;BME280;15317;50.360;8.726;2023-07-28T05:46:41;98842.78;;;16.95;100.00
27984;BME280;15317;50.360;8.726;2023-07-28T05:51:45;98832.22;;;16.92;100.00
27984;BME280;15317;50.360;8.726;2023-07-28T05:56:48;98841.50;;;17.05;100.00
27984;BME280;15317;50.360;8.726;2023-07-28T06:01:53;98846.53;;;17.08;100.00
27984;BME280;15317;50.360;8.726;2023-07-28T06:06:56;98846.47;;;17.21;100.00
27984;BME280;15317;50.360;8.726;2023-07-28T06:11:59;98850.28;;;17.20;100.00
27984;BME280;15317;50.360;8.726;2023-07-28T06:17:04;98841.78;;;17.28;100.00
27984;BME280;15317;50.360;8.726;2023-07-28T06:22:09;98851.22;;;17.45;100.00
27984;BME280;15317;50.360;8.726;2023-07-28T06:27:12;98847.13;;;17.54;100.00
27984;BME280;15317;50.360;8.726;2023-07-28T06:32:16;98845.44;;;17.66;100.00
27984;BME280;15317;50.360;8.726;2023-07-28T06:37:20;98831.81;;;17.78;100.00
27984;BME280;15317;50.360;8.726;2023-07-28T06:42:23;98843.09;;;17.95;100.00
27984;BME280;15317;50.360;8.726;2023-07-28T06:47:28;98853.44;;;18.24;100.00
27984;BME280;15317;50.360;8.726;2023-07-28T06:52:31;98846.47;;;18.46;100.00
27984;BME280;15317;50.360;8.726;2023-07-28T06:57:34;98834.31;;;18.61;100.00
27984;BME280;15317;50.360;8.726;2023-07-28T07:02:41;98828.59;;;18.99;100.00
27984;BME280;15317;50.360;8.726;2023-07-28T07:07:44;98819.94;;;19.13;100.00
27984;BME280;15317;50.360;8.726;2023-07-28T07:12:48;98817.81;;;19.45;100.00
27984;BME280;15317;50.360;8.726;2023-07-28T07:17:54;98824.91;;;19.71;100.00
27984;BME280;15317;50.360;8.726;2023-07-28T07:22:57;98818.91;;;19.74;100.00
27984;BME280;15317;50.360;8.726;2023-07-28T07:28:00;98813.63;;;19.43;100.00
27984;BME280;15317;50.360;8.726;2023-07-28T07:33:04;98832.00;;;19.30;100.00
27984;BME280;15317;50.360;8.726;2023-07-28T07:38:08;98841.03;;;19.19;100.00
27984;BME280;15317;50.360;8.726;2023-07-28T07:43:11;98844.69;;;19.31;100.00
27984;BME280;15317;50.360;8.726;2023-07-28T07:48:22;98835.94;;;19.71;100.00
27984;BME280;15317;50.360;8.726;2023-07-28T07:53:25;98833.06;;;20.31;100.00
27984;BME280;15317;50.360;8.726;2023-07-28T07:58:28;98819.13;;;20.96;100.00
27984;BME280;15317;50.360;8.726;2023-07-28T08:03:33;98811.00;;;21.29;100.00
27984;BME280;15317;50.360;8.726;2023-07-28T08:08:38;98817.22;;;21.48;100.00
27984;BME280;15317;50.360;8.726;2023-07-28T08:13:44;98811.25;;;21.39;100.00
27984;BME280;15317;50.360;8.726;2023-07-28T08:18:51;98829.88;;;21.32;100.00
27984;BME280;15317;50.360;8.726;2023-07-28T08:23:54;98823.56;;;21.08;100.00
27984;BME280;15317;50.360;8.726;2023-07-28T08:28:57;98814.84;;;20.76;100.00
27984;BME280;15317;50.360;8.726;2023-07-28T08:34:02;98830.28;;;21.01;100.00
27984;BME280;15317;50.360;8.726;2023-07-28T09:04:16;98840.78;;;21.39;100.00
27984;BME280;15317;50.360;8.726;2023-07-28T09:14:38;98833.78;;;22.55;100.00
27984;BME280;15317;50.360;8.726;2023-07-28T09:19:53;98827.78;;;22.24;100.00
27984;BME280;15317;50.360;8.726;2023-07-28T09:24:56;98829.84;;;23.98;100.00
27984;BME280;15317;50.360;8.726;2023-07-28T09:47:07;98822.34;;;23.98;100.00
27984;BME280;15317;50.360;8.726;2023-07-28T09:52:11;98818.94;;;24.18;100.00
27984;BME280;15317;50.360;8.726;2023-07-28T09:57:20;98821.63;;;24.08;100.00
27984;BME280;15317;50.360;8.726;2023-07-28T10:02:25;98824.09;;;23.78;100.00
27984;BME280;15317;50.360;8.726;2023-07-28T10:07:29;98822.72;;;23.53;95.59
27984;BME280;15317;50.360;8.726;2023-07-28T10:12:39;98822.88;;;23.69;92.95
27984;BME280;15317;50.360;8.726;2023-07-28T10:17:46;98824.72;;;23.58;99.02
27984;BME280;15317;50.360;8.726;2023-07-28T10:22:50;98829.38;;;23.79;98.79
27984;BME280;15317;50.360;8.726;2023-07-28T10:27:54;98825.03;;;24.15;93.07
27984;BME280;15317;50.360;8.726;2023-07-28T10:32:58;98829.31;;;24.28;94.70
27984;BME280;15317;50.360;8.726;2023-07-28T10:38:33;98837.94;;;24.63;89.55
27984;BME280;15317;50.360;8.726;2023-07-28T10:43:37;98836.88;;;24.37;85.67
27984;BME280;15317;50.360;8.726;2023-07-28T10:48:44;98843.19;;;24.01;95.76
27984;BME280;15317;50.360;8.726;2023-07-28T10:53:50;98831.13;;;23.63;90.41
27984;BME280;15317;50.360;8.726;2023-07-28T10:58:57;98838.78;;;23.51;95.95
27984;BME280;15317;50.360;8.726;2023-07-28T11:04:07;98834.50;;;23.92;93.66
27984;BME280;15317;50.360;8.726;2023-07-28T11:09:14;98844.66;;;24.77;91.11
27984;BME280;15317;50.360;8.726;2023-07-28T11:14:18;98842.59;;;24.95;85.29
27984;BME280;15317;50.360;8.726;2023-07-28T11:19:23;98837.53;;;25.34;89.01
27984;BME280;15317;50.360;8.726;2023-07-28T11:24:28;98840.19;;;25.13;81.86
27984;BME280;15317;50.360;8.726;2023-07-28T11:29:31;98836.13;;;25.31;79.31
27984;BME280;15317;50.360;8.726;2023-07-28T11:34:36;98836.69;;;25.33;86.28
27984;BME280;15317;50.360;8.726;2023-07-28T11:39:40;98834.38;;;25.10;81.06
27984;BME280;15317;50.360;8.726;2023-07-28T11:44:43;98827.63;;;24.96;89.26
27984;BME280;15317;50.360;8.726;2023-07-28T11:49:48;98840.88;;;24.89;85.90
27984;BME280;15317;50.360;8.726;2023-07-28T11:54:52;98837.13;;;24.68;89.48
27984;BME280;15317;50.360;8.726;2023-07-28T11:59:56;98832.72;;;25.19;84.75
27984;BME280;15317;50.360;8.726;2023-07-28T12:05:00;98833.97;;;25.53;81.11
27984;BME280;15317;50.360;8.726;2023-07-28T12:10:08;98827.25;;;25.39;85.30
27984;BME280;15317;50.360;8.726;2023-07-28T12:15:19;98824.94;;;25.93;80.57
27984;BME280;15317;50.360;8.726;2023-07-28T12:20:33;98831.97;;;26.57;71.04
27984;BME280;15317;50.360;8.726;2023-07-28T12:25:41;98828.63;;;26.24;70.65
27984;BME280;15317;50.360;8.726;2023-07-28T12:30:44;98828.00;;;25.97;76.84
27984;BME280;15317;50.360;8.726;2023-07-28T12:35:52;98822.72;;;26.01;77.01
27984;BME280;15317;50.360;8.726;2023-07-28T12:41:16;98821.25;;;25.63;74.63
27984;BME280;15317;50.360;8.726;2023-07-28T12:46:23;98818.66;;;25.41;81.69
27984;BME280;15317;50.360;8.726;2023-07-28T12:51:28;98818.38;;;25.37;76.95
27984;BME280;15317;50.360;8.726;2023-07-28T12:56:32;98821.59;;;25.19;85.15
27984;BME280;15317;50.360;8.726;2023-07-28T13:01:39;98834.09;;;24.69;90.61
27984;BME280;15317;50.360;8.726;2023-07-28T13:06:44;98836.31;;;24.35;92.34
27984;BME280;15317;50.360;8.726;2023-07-28T13:11:47;98835.66;;;24.23;93.81
27984;BME280;15317;50.360;8.726;2023-07-28T13:16:53;98846.75;;;24.23;94.39
27984;BME280;15317;50.360;8.726;2023-07-28T13:21:58;98842.34;;;24.27;93.89
27984;BME280;15317;50.360;8.726;2023-07-28T13:27:01;98847.31;;;24.57;92.55
27984;BME280;15317;50.360;8.726;2023-07-28T13:32:15;98838.06;;;24.47;92.74
27984;BME280;15317;50.360;8.726;2023-07-28T13:37:20;98833.13;;;24.54;94.60
27984;BME280;15317;50.360;8.726;2023-07-28T13:42:23;98827.59;;;24.59;98.68
27984;BME280;15317;50.360;8.726;2023-07-28T13:47:26;98845.66;;;24.98;92.46
27984;BME280;15317;50.360;8.726;2023-07-28T13:52:31;98819.88;;;25.03;89.31
27984;BME280;15317;50.360;8.726;2023-07-28T13:57:34;98824.47;;;24.50;95.59
27984;BME280;15317;50.360;8.726;2023-07-28T14:02:38;98826.00;;;24.04;100.00
27984;BME280;15317;50.360;8.726;2023-07-28T14:07:43;98828.28;;;24.39;100.00
27984;BME280;15317;50.360;8.726;2023-07-28T14:12:49;98829.22;;;24.50;95.11
27984;BME280;15317;50.360;8.726;2023-07-28T14:17:52;98831.66;;;24.41;98.44
27984;BME280;15317;50.360;8.726;2023-07-28T14:22:59;98827.69;;;24.32;99.26
27984;BME280;15317;50.360;8.726;2023-07-28T14:28:03;98831.78;;;23.97;100.00
27984;BME280;15317;50.360;8.726;2023-07-28T14:33:06;98835.81;;;23.85;100.00
27984;BME280;15317;50.360;8.726;2023-07-28T14:38:11;98832.41;;;23.78;100.00
27984;BME280;15317;50.360;8.726;2023-07-28T14:43:15;98834.03;;;24.00;100.00
27984;BME280;15317;50.360;8.726;2023-07-28T14:48:18;98826.41;;;24.18;99.53
27984;BME280;15317;50.360;8.726;2023-07-28T14:53:30;98825.03;;;24.47;96.04
27984;BME280;15317;50.360;8.726;2023-07-28T14:58:33;98831.47;;;24.58;95.84
27984;BME280;15317;50.360;8.726;2023-07-28T15:03:37;98832.88;;;24.55;96.96
27984;BME280;15317;50.360;8.726;2023-07-28T15:08:42;98836.81;;;24.64;93.46
27984;BME280;15317;50.360;8.726;2023-07-28T15:13:45;98840.47;;;24.33;94.78
27984;BME280;15317;50.360;8.726;2023-07-28T15:18:48;98841.31;;;23.80;100.00
27984;BME280;15317;50.360;8.726;2023-07-28T15:23:54;98838.94;;;23.45;100.00
27984;BME280;15317;50.360;8.726;2023-07-28T15:28:58;98834.03;;;23.08;100.00
27984;BME280;15317;50.360;8.726;2023-07-28T15:34:02;98849.44;;;22.66;100.00
27984;BME280;15317;50.360;8.726;2023-07-28T15:39:07;98843.59;;;22.45;100.00
27984;BME280;15317;50.360;8.726;2023-07-28T15:44:10;98856.59;;;22.28;100.00
27984;BME280;15317;50.360;8.726;2023-07-28T15:49:13;98852.06;;;22.22;100.00
27984;BME280;15317;50.360;8.726;2023-07-28T15:54:18;98851.00;;;21.95;100.00
27984;BME280;15317;50.360;8.726;2023-07-28T15:59:21;98854.25;;;21.92;100.00
27984;BME280;15317;50.360;8.726;2023-07-28T16:04:24;98850.38;;;22.21;100.00
27984;BME280;15317;50.360;8.726;2023-07-28T16:09:28;98847.03;;;22.53;100.00
27984;BME280;15317;50.360;8.726;2023-07-28T16:14:31;98840.16;;;22.72;100.00
27984;BME280;15317;50.360;8.726;2023-07-28T16:19:35;98848.56;;;22.77;100.00
27984;BME280;15317;50.360;8.726;2023-07-28T16:24:39;98837.22;;;22.78;100.00
27984;BME280;15317;50.360;8.726;2023-07-28T16:29:42;98843.34;;;22.64;100.00
27984;BME280;15317;50.360;8.726;2023-07-28T16:34:46;98825.81;;;22.58;100.00
27984;BME280;15317;50.360;8.726;2023-07-28T16:39:51;98829.09;;;22.38;100.00
27984;BME280;15317;50.360;8.726;2023-07-28T16:44:54;98827.44;;;22.37;100.00
27984;BME280;15317;50.360;8.726;2023-07-28T16:49:57;98819.88;;;22.50;100.00
27984;BME280;15317;50.360;8.726;2023-07-28T16:55:02;98820.47;;;22.52;100.00
27984;BME280;15317;50.360;8.726;2023-07-28T17:00:06;98825.38;;;22.83;100.00
27984;BME280;15317;50.360;8.726;2023-07-28T17:05:09;98825.38;;;22.83;100.00
27984;BME280;15317;50.360;8.726;2023-07-28T17:10:14;98821.75;;;22.66;100.00
27984;BME280;15317;50.360;8.726;2023-07-28T17:15:17;98830.00;;;22.27;100.00
27984;BME280;15317;50.360;8.726;2023-07-28T17:20:40;98842.84;;;22.17;100.00
27984;BME280;15317;50.360;8.726;2023-07-28T17:25:45;98838.47;;;22.04;100.00
27984;BME280;15317;50.360;8.726;2023-07-28T17:30:49;98846.78;;;22.04;100.00
27984;BME280;15317;50.360;8.726;2023-07-28T17:35:52;98845.47;;;21.95;100.00
27984;BME280;15317;50.360;8.726;2023-07-28T17:40:56;98837.56;;;21.87;100.00
27984;BME280;15317;50.360;8.726;2023-07-28T17:46:00;98845.78;;;21.82;100.00
27984;BME280;15317;50.360;8.726;2023-07-28T17:51:03;98848.47;;;21.77;100.00
27984;BME280;15317;50.360;8.726;2023-07-28T17:56:08;98844.78;;;21.88;100.00
27984;BME280;15317;50.360;8.726;2023-07-28T18:01:12;98839.34;;;21.93;100.00
27984;BME280;15317;50.360;8.726;2023-07-28T18:06:15;98842.00;;;21.88;100.00
27984;BME280;15317;50.360;8.726;2023-07-28T18:11:19;98849.25;;;21.77;100.00
27984;BME280;15317;50.360;8.726;2023-07-28T18:16:22;98844.56;;;21.61;100.00
27984;BME280;15317;50.360;8.726;2023-07-28T18:21:27;98855.53;;;21.44;100.00
27984;BME280;15317;50.360;8.726;2023-07-28T18:26:33;98858.69;;;21.36;100.00
27984;BME280;15317;50.360;8.726;2023-07-28T18:31:36;98859.56;;;21.13;100.00
27984;BME280;15317;50.360;8.726;2023-07-28T18:36:39;98862.94;;;21.04;100.00
27984;BME280;15317;50.360;8.726;2023-07-28T18:41:44;98878.91;;;20.78;100.00
27984;BME280;15317;50.360;8.726;2023-07-28T18:46:48;98890.19;;;20.65;100.00
27984;BME280;15317;50.360;8.726;2023-07-28T18:51:51;98894.50;;;20.61;100.00
27984;BME280;15317;50.360;8.726;2023-07-28T18:56:56;98899.91;;;20.44;100.00
27984;BME280;15317;50.360;8.726;2023-07-28T19:02:01;98910.28;;;20.31;100.00
27984;BME280;15317;50.360;8.726;2023-07-28T19:07:05;98920.28;;;20.13;100.00
27984;BME280;15317;50.360;8.726;2023-07-28T19:12:09;98929.97;;;20.04;100.00
27984;BME280;15317;50.360;8.726;2023-07-28T19:17:12;98934.63;;;19.92;100.00
27984;BME280;15317;50.360;8.726;2023-07-28T19:22:17;98943.66;;;19.81;100.00
27984;BME280;15317;50.360;8.726;2023-07-28T19:27:21;98947.13;;;19.77;100.00
27984;BME280;15317;50.360;8.726;2023-07-28T19:32:24;98946.81;;;19.66;100.00
27984;BME280;15317;50.360;8.726;2023-07-28T19:37:28;98949.06;;;19.58;100.00
27984;BME280;15317;50.360;8.726;2023-07-28T19:42:47;98955.47;;;19.52;100.00
27984;BME280;15317;50.360;8.726;2023-07-28T19:47:50;98966.78;;;19.44;100.00
27984;BME280;15317;50.360;8.726;2023-07-28T19:52:53;98968.28;;;19.40;100.00
27984;BME280;15317;50.360;8.726;2023-07-28T19:57:58;98974.28;;;19.37;100.00
27984;BME280;15317;50.360;8.726;2023-07-28T20:03:03;98981.91;;;19.34;100.00
27984;BME280;15317;50.360;8.726;2023-07-28T20:08:06;98993.38;;;19.31;100.00
27984;BME280;15317;50.360;8.726;2023-07-28T20:13:11;99008.69;;;19.27;100.00
27984;BME280;15317;50.360;8.726;2023-07-28T20:18:14;99014.63;;;19.24;100.00
27984;BME280;15317;50.360;8.726;2023-07-28T20:23:20;99033.38;;;19.16;100.00
27984;BME280;15317;50.360;8.726;2023-07-28T20:28:24;99029.16;;;19.13;100.00
27984;BME280;15317;50.360;8.726;2023-07-28T20:33:28;99039.16;;;19.08;100.00
27984;BME280;15317;50.360;8.726;2023-07-28T20:38:31;99040.84;;;19.09;100.00
27984;BME280;15317;50.360;8.726;2023-07-28T20:43:36;99043.38;;;19.10;100.00
27984;BME280;15317;50.360;8.726;2023-07-28T20:48:39;99036.78;;;19.11;100.00
27984;BME280;15317;50.360;8.726;2023-07-28T20:53:42;99033.66;;;19.08;100.00
27984;BME280;15317;50.360;8.726;2023-07-28T20:58:49;99036.47;;;19.01;100.00
27984;BME280;15317;50.360;8.726;2023-07-28T21:03:52;99029.72;;;18.97;100.00
27984;BME280;15317;50.360;8.726;2023-07-28T21:08:56;99030.59;;;18.91;100.00
27984;BME280;15317;50.360;8.726;2023-07-28T21:14:01;99028.94;;;18.90;100.00
27984;BME280;15317;50.360;8.726;2023-07-28T21:19:04;99028.75;;;18.85;100.00
27984;BME280;15317;50.360;8.726;2023-07-28T21:24:07;99030.72;;;18.78;100.00
27984;BME280;15317;50.360;8.726;2023-07-28T21:29:11;99027.81;;;18.73;100.00
27984;BME280;15317;50.360;8.726;2023-07-28T21:34:15;99032.97;;;18.63;100.00
27984;BME280;15317;50.360;8.726;2023-07-28T21:39:18;99037.00;;;18.53;100.00
27984;BME280;15317;50.360;8.726;2023-07-28T21:44:25;99036.03;;;18.41;100.00
27984;BME280;15317;50.360;8.726;2023-07-28T21:49:28;99049.59;;;18.36;100.00
27984;BME280;15317;50.360;8.726;2023-07-28T21:54:32;99042.47;;;18.22;100.00
27984;BME280;15317;50.360;8.726;2023-07-28T21:59:36;99040.44;;;18.11;100.00
27984;BME280;15317;50.360;8.726;2023-07-28T22:04:39;99034.09;;;18.10;100.00
27984;BME280;15317;50.360;8.726;2023-07-28T22:09:42;99045.56;;;18.01;100.00
27984;BME280;15317;50.360;8.726;2023-07-28T22:14:47;99034.19;;;17.91;100.00
27984;BME280;15317;50.360;8.726;2023-07-28T22:19:50;99032.97;;;17.80;100.00
27984;BME280;15317;50.360;8.726;2023-07-28T22:24:53;99039.91;;;17.83;100.00
27984;BME280;15317;50.360;8.726;2023-07-28T22:29:58;99044.81;;;17.81;100.00
27984;BME280;15317;50.360;8.726;2023-07-28T22:35:01;99045.88;;;17.80;100.00
27984;BME280;15317;50.360;8.726;2023-07-28T22:40:09;99035.94;;;17.79;100.00
27984;BME280;15317;50.360;8.726;2023-07-28T22:45:14;99026.63;;;17.80;100.00
27984;BME280;15317;50.360;8.726;2023-07-28T22:50:17;99020.69;;;17.83;100.00
27984;BME280;15317;50.360;8.726;2023-07-28T22:55:21;99029.56;;;17.85;100.00
27984;BME280;15317;50.360;8.726;2023-07-28T23:00:26;99020.69;;;17.83;100.00
27984;BME280;15317;50.360;8.726;2023-07-28T23:05:29;99026.19;;;17.83;100.00
27984;BME280;15317;50.360;8.726;2023-07-28T23:10:32;99046.72;;;17.80;100.00
27984;BME280;15317;50.360;8.726;2023-07-28T23:15:37;99040.75;;;17.90;100.00
27984;BME280;15317;50.360;8.726;2023-07-28T23:20:40;99037.13;;;17.96;100.00
27984;BME280;15317;50.360;8.726;2023-07-28T23:25:43;99033.72;;;18.00;100.00
27984;BME280;15317;50.360;8.726;2023-07-28T23:30:47;99035.81;;;18.05;100.00
27984;BME280;15317;50.360;8.726;2023-07-28T23:35:51;99014.63;;;18.12;100.00
27984;BME280;15317;50.360;8.726;2023-07-28T23:40:54;99000.91;;;18.12;100.00
27984;BME280;15317;50.360;8.726;2023-07-28T23:45:59;98999.00;;;18.12;100.00
27984;BME280;15317;50.360;8.726;2023-07-28T23:51:02;99005.75;;;18.10;100.00
27984;BME280;15317;50.360;8.726;2023-07-28T23:56:06;99005.97;;;18.08;100.00
